sensor_id;sensor_type;location;lat;lon;timestamp;P1;durP1;ratioP1;P2;durP2;ratioP2
19739;SDS011;10027;51.066;13.768;2022-12-05T00:00:54;14.13;;;8.00;;
19739;SDS011;10027;51.066;13.768;2022-12-05T00:03:21;13.37;;;7.80;;
19739;SDS011;10027;51.066;13.768;2022-12-05T00:05:48;12.17;;;7.70;;
19739;SDS011;10027;51.066;13.768;2022-12-05T00:08:15;13.20;;;7.60;;
19739;SDS011;10027;51.066;13.768;2022-12-05T00:10:42;12.20;;;7.93;;
19739;SDS011;10027;51.066;13.768;2022-12-05T00:13:10;12.20;;;7.53;;
19739;SDS011;10027;51.066;13.768;2022-12-05T00:15:39;16.10;;;7.77;;
19739;SDS011;10027;51.066;13.768;2022-12-05T00:18:07;12.43;;;7.60;;
19739;SDS011;10027;51.066;13.768;2022-12-05T00:20:34;12.70;;;7.20;;
19739;SDS011;10027;51.066;13.768;2022-12-05T00:23:01;12.93;;;7.50;;
19739;SDS011;10027;51.066;13.768;2022-12-05T00:25:28;12.83;;;7.63;;
19739;SDS011;10027;51.066;13.768;2022-12-05T00:30:31;14.30;;;7.80;;
19739;SDS011;10027;51.066;13.768;2022-12-05T00:32:58;14.30;;;8.17;;
19739;SDS011;10027;51.066;13.768;2022-12-05T00:35:25;14.17;;;8.10;;
19739;SDS011;10027;51.066;13.768;2022-12-05T00:37:52;12.03;;;7.60;;
19739;SDS011;10027;51.066;13.768;2022-12-05T00:40:19;11.80;;;7.70;;
19739;SDS011;10027;51.066;13.768;2022-12-05T00:42:46;12.07;;;7.27;;
19739;SDS011;10027;51.066;13.768;2022-12-05T00:45:17;14.27;;;7.93;;
19739;SDS011;10027;51.066;13.768;2022-12-05T00:47:44;12.83;;;8.30;;
19739;SDS011;10027;51.066;13.768;2022-12-05T00:50:12;13.73;;;7.50;;
19739;SDS011;10027;51.066;13.768;2022-12-05T00:52:39;12.80;;;7.67;;
19739;SDS011;10027;51.066;13.768;2022-12-05T00:55:06;13.47;;;7.43;;
19739;SDS011;10027;51.066;13.768;2022-12-05T00:57:33;13.77;;;7.73;;
19739;SDS011;10027;51.066;13.768;2022-12-05T01:00:00;13.83;;;8.60;;
19739;SDS011;10027;51.066;13.768;2022-12-05T01:02:28;12.77;;;7.87;;
19739;SDS011;10027;51.066;13.768;2022-12-05T01:04:55;13.20;;;7.47;;
19739;SDS011;10027;51.066;13.768;2022-12-05T01:07:22;12.33;;;7.97;;
19739;SDS011;10027;51.066;13.768;2022-12-05T01:09:50;12.97;;;7.63;;
19739;SDS011;10027;51.066;13.768;2022-12-05T01:12:17;13.43;;;8.33;;
19739;SDS011;10027;51.066;13.768;2022-12-05T01:14:44;14.77;;;8.50;;
19739;SDS011;10027;51.066;13.768;2022-12-05T01:17:11;12.10;;;7.53;;
19739;SDS011;10027;51.066;13.768;2022-12-05T01:19:38;14.53;;;8.23;;
19739;SDS011;10027;51.066;13.768;2022-12-05T01:22:05;13.27;;;7.87;;
19739;SDS011;10027;51.066;13.768;2022-12-05T01:24:32;12.73;;;8.07;;
19739;SDS011;10027;51.066;13.768;2022-12-05T01:26:59;13.83;;;8.27;;
19739;SDS011;10027;51.066;13.768;2022-12-05T01:29:26;13.57;;;8.17;;
19739;SDS011;10027;51.066;13.768;2022-12-05T01:31:53;15.17;;;8.20;;
19739;SDS011;10027;51.066;13.768;2022-12-05T01:34:21;14.20;;;8.63;;
19739;SDS011;10027;51.066;13.768;2022-12-05T01:36:48;13.77;;;8.27;;
19739;SDS011;10027;51.066;13.768;2022-12-05T01:39:15;13.50;;;7.80;;
19739;SDS011;10027;51.066;13.768;2022-12-05T01:41:43;14.40;;;8.53;;
19739;SDS011;10027;51.066;13.768;2022-12-05T01:46:39;13.43;;;8.10;;
19739;SDS011;10027;51.066;13.768;2022-12-05T01:49:13;15.47;;;8.97;;
19739;SDS011;10027;51.066;13.768;2022-12-05T01:51:45;15.70;;;8.30;;
19739;SDS011;10027;51.066;13.768;2022-12-05T01:54:12;13.83;;;8.27;;
19739;SDS011;10027;51.066;13.768;2022-12-05T01:56:41;16.53;;;8.27;;
19739;SDS011;10027;51.066;13.768;2022-12-05T01:59:09;13.47;;;8.17;;
19739;SDS011;10027;51.066;13.768;2022-12-05T02:01:37;13.50;;;7.77;;
19739;SDS011;10027;51.066;13.768;2022-12-05T02:04:04;13.10;;;7.77;;
19739;SDS011;10027;51.066;13.768;2022-12-05T02:06:32;12.57;;;7.97;;
19739;SDS011;10027;51.066;13.768;2022-12-05T02:08:59;13.33;;;7.77;;
19739;SDS011;10027;51.066;13.768;2022-12-05T02:11:27;13.63;;;8.20;;
19739;SDS011;10027;51.066;13.768;2022-12-05T02:24:40;14.83;;;7.93;;
19739;SDS011;10027;51.066;13.768;2022-12-05T02:27:17;13.97;;;8.20;;
19739;SDS011;10027;51.066;13.768;2022-12-05T02:29:58;14.83;;;8.27;;
19739;SDS011;10027;51.066;13.768;2022-12-05T02:32:42;12.47;;;7.60;;
19739;SDS011;10027;51.066;13.768;2022-12-05T02:37:51;13.90;;;7.60;;
19739;SDS011;10027;51.066;13.768;2022-12-05T02:40:24;15.53;;;7.43;;
19739;SDS011;10027;51.066;13.768;2022-12-05T02:42:55;12.33;;;7.50;;
19739;SDS011;10027;51.066;13.768;2022-12-05T02:45:25;11.57;;;7.07;;
19739;SDS011;10027;51.066;13.768;2022-12-05T02:47:53;13.43;;;7.77;;
19739;SDS011;10027;51.066;13.768;2022-12-05T02:50:22;11.40;;;7.07;;
19739;SDS011;10027;51.066;13.768;2022-12-05T02:52:51;13.43;;;7.20;;
19739;SDS011;10027;51.066;13.768;2022-12-05T02:55:19;13.90;;;7.80;;
19739;SDS011;10027;51.066;13.768;2022-12-05T02:57:49;11.17;;;7.43;;
19739;SDS011;10027;51.066;13.768;2022-12-05T03:00:18;12.40;;;7.37;;
19739;SDS011;10027;51.066;13.768;2022-12-05T03:02:47;14.30;;;7.53;;
19739;SDS011;10027;51.066;13.768;2022-12-05T03:07:42;13.03;;;7.67;;
19739;SDS011;10027;51.066;13.768;2022-12-05T03:10:11;12.90;;;7.53;;
19739;SDS011;10027;51.066;13.768;2022-12-05T03:12:41;11.47;;;6.90;;
19739;SDS011;10027;51.066;13.768;2022-12-05T03:15:12;13.57;;;7.33;;
19739;SDS011;10027;51.066;13.768;2022-12-05T03:17:42;11.83;;;7.17;;
19739;SDS011;10027;51.066;13.768;2022-12-05T03:20:12;12.23;;;7.13;;
19739;SDS011;10027;51.066;13.768;2022-12-05T03:22:45;12.43;;;7.07;;
19739;SDS011;10027;51.066;13.768;2022-12-05T03:25:14;13.37;;;7.90;;
19739;SDS011;10027;51.066;13.768;2022-12-05T03:27:49;11.90;;;7.30;;
19739;SDS011;10027;51.066;13.768;2022-12-05T03:30:19;12.73;;;7.23;;
19739;SDS011;10027;51.066;13.768;2022-12-05T03:40:28;10.97;;;7.10;;
19739;SDS011;10027;51.066;13.768;2022-12-05T03:43:15;11.83;;;7.30;;
19739;SDS011;10027;51.066;13.768;2022-12-05T03:45:48;10.27;;;6.67;;
19739;SDS011;10027;51.066;13.768;2022-12-05T03:50:52;11.00;;;6.70;;
19739;SDS011;10027;51.066;13.768;2022-12-05T03:53:21;10.87;;;7.20;;
19739;SDS011;10027;51.066;13.768;2022-12-05T03:56:26;10.47;;;6.87;;
19739;SDS011;10027;51.066;13.768;2022-12-05T03:58:54;11.60;;;6.20;;
19739;SDS011;10027;51.066;13.768;2022-12-05T04:01:23;10.43;;;7.10;;
19739;SDS011;10027;51.066;13.768;2022-12-05T04:03:57;11.30;;;6.57;;
19739;SDS011;10027;51.066;13.768;2022-12-05T04:06:28;10.73;;;6.47;;
19739;SDS011;10027;51.066;13.768;2022-12-05T04:09:40;11.30;;;6.47;;
19739;SDS011;10027;51.066;13.768;2022-12-05T04:11:47;10.07;;;6.60;;
19739;SDS011;10027;51.066;13.768;2022-12-05T04:14:18;11.67;;;6.53;;
19739;SDS011;10027;51.066;13.768;2022-12-05T04:22:25;12.20;;;6.90;;
19739;SDS011;10027;51.066;13.768;2022-12-05T04:24:53;8.83;;;5.77;;
19739;SDS011;10027;51.066;13.768;2022-12-05T04:30:28;10.00;;;6.10;;
19739;SDS011;10027;51.066;13.768;2022-12-05T04:35:40;8.57;;;5.97;;
19739;SDS011;10027;51.066;13.768;2022-12-05T04:38:09;9.77;;;6.17;;
19739;SDS011;10027;51.066;13.768;2022-12-05T04:40:45;8.83;;;5.80;;
19739;SDS011;10027;51.066;13.768;2022-12-05T04:43:13;10.50;;;5.90;;
19739;SDS011;10027;51.066;13.768;2022-12-05T04:45:42;8.87;;;5.73;;
19739;SDS011;10027;51.066;13.768;2022-12-05T04:48:10;10.30;;;6.03;;
19739;SDS011;10027;51.066;13.768;2022-12-05T04:50:38;9.27;;;5.83;;
19739;SDS011;10027;51.066;13.768;2022-12-05T04:53:06;10.20;;;6.30;;
19739;SDS011;10027;51.066;13.768;2022-12-05T04:55:35;11.17;;;5.50;;
19739;SDS011;10027;51.066;13.768;2022-12-05T04:58:06;12.00;;;6.23;;
19739;SDS011;10027;51.066;13.768;2022-12-05T05:00:37;10.17;;;6.30;;
19739;SDS011;10027;51.066;13.768;2022-12-05T05:03:13;9.73;;;6.20;;
19739;SDS011;10027;51.066;13.768;2022-12-05T05:05:44;8.67;;;5.97;;
19739;SDS011;10027;51.066;13.768;2022-12-05T05:08:17;9.67;;;5.60;;
19739;SDS011;10027;51.066;13.768;2022-12-05T05:13:30;8.40;;;5.63;;
19739;SDS011;10027;51.066;13.768;2022-12-05T05:15:57;9.20;;;6.03;;
19739;SDS011;10027;51.066;13.768;2022-12-05T05:18:24;10.73;;;6.00;;
19739;SDS011;10027;51.066;13.768;2022-12-05T05:20:51;9.70;;;5.87;;
19739;SDS011;10027;51.066;13.768;2022-12-05T05:23:19;8.83;;;5.53;;
19739;SDS011;10027;51.066;13.768;2022-12-05T05:25:50;8.07;;;5.37;;
19739;SDS011;10027;51.066;13.768;2022-12-05T05:28:17;8.83;;;5.70;;
19739;SDS011;10027;51.066;13.768;2022-12-05T05:30:44;8.40;;;5.67;;
19739;SDS011;10027;51.066;13.768;2022-12-05T05:33:11;7.47;;;5.47;;
19739;SDS011;10027;51.066;13.768;2022-12-05T05:35:39;7.60;;;4.97;;
19739;SDS011;10027;51.066;13.768;2022-12-05T05:38:06;9.17;;;5.50;;
19739;SDS011;10027;51.066;13.768;2022-12-05T05:40:35;11.83;;;5.83;;
19739;SDS011;10027;51.066;13.768;2022-12-05T05:43:03;7.90;;;5.07;;
19739;SDS011;10027;51.066;13.768;2022-12-05T05:45:30;7.37;;;5.23;;
19739;SDS011;10027;51.066;13.768;2022-12-05T05:47:57;8.97;;;5.40;;
19739;SDS011;10027;51.066;13.768;2022-12-05T05:50:24;9.63;;;5.67;;
19739;SDS011;10027;51.066;13.768;2022-12-05T05:52:51;9.20;;;5.50;;
19739;SDS011;10027;51.066;13.768;2022-12-05T05:55:18;8.83;;;5.97;;
19739;SDS011;10027;51.066;13.768;2022-12-05T05:57:45;8.07;;;5.47;;
19739;SDS011;10027;51.066;13.768;2022-12-05T06:00:12;8.50;;;5.30;;
19739;SDS011;10027;51.066;13.768;2022-12-05T06:02:40;8.27;;;5.43;;
19739;SDS011;10027;51.066;13.768;2022-12-05T06:05:07;8.23;;;5.37;;
19739;SDS011;10027;51.066;13.768;2022-12-05T06:07:34;9.20;;;5.47;;
19739;SDS011;10027;51.066;13.768;2022-12-05T06:10:02;8.67;;;5.37;;
19739;SDS011;10027;51.066;13.768;2022-12-05T06:12:29;9.37;;;5.83;;
19739;SDS011;10027;51.066;13.768;2022-12-05T06:14:56;9.73;;;5.77;;
19739;SDS011;10027;51.066;13.768;2022-12-05T06:17:23;9.00;;;5.40;;
19739;SDS011;10027;51.066;13.768;2022-12-05T06:19:50;8.50;;;5.67;;
19739;SDS011;10027;51.066;13.768;2022-12-05T06:22:17;9.00;;;5.63;;
19739;SDS011;10027;51.066;13.768;2022-12-05T06:24:44;9.30;;;5.50;;
19739;SDS011;10027;51.066;13.768;2022-12-05T06:27:11;10.43;;;6.30;;
19739;SDS011;10027;51.066;13.768;2022-12-05T06:29:38;8.30;;;5.77;;
19739;SDS011;10027;51.066;13.768;2022-12-05T06:32:06;10.30;;;5.80;;
19739;SDS011;10027;51.066;13.768;2022-12-05T06:34:33;8.37;;;5.67;;
19739;SDS011;10027;51.066;13.768;2022-12-05T06:37:00;9.77;;;5.90;;
19739;SDS011;10027;51.066;13.768;2022-12-05T06:39:27;8.83;;;5.80;;
19739;SDS011;10027;51.066;13.768;2022-12-05T06:41:55;9.47;;;5.93;;
19739;SDS011;10027;51.066;13.768;2022-12-05T06:44:22;8.53;;;6.07;;
19739;SDS011;10027;51.066;13.768;2022-12-05T06:46:52;9.97;;;5.97;;
19739;SDS011;10027;51.066;13.768;2022-12-05T06:49:20;9.77;;;5.57;;
19739;SDS011;10027;51.066;13.768;2022-12-05T06:51:55;7.43;;;5.47;;
19739;SDS011;10027;51.066;13.768;2022-12-05T06:54:22;8.63;;;5.40;;
19739;SDS011;10027;51.066;13.768;2022-12-05T06:56:49;12.50;;;6.00;;
19739;SDS011;10027;51.066;13.768;2022-12-05T06:59:16;10.30;;;5.93;;
19739;SDS011;10027;51.066;13.768;2022-12-05T07:01:43;8.83;;;5.20;;
19739;SDS011;10027;51.066;13.768;2022-12-05T07:04:13;9.63;;;5.73;;
19739;SDS011;10027;51.066;13.768;2022-12-05T07:06:42;9.70;;;5.83;;
19739;SDS011;10027;51.066;13.768;2022-12-05T07:09:16;8.60;;;5.80;;
19739;SDS011;10027;51.066;13.768;2022-12-05T07:11:47;9.37;;;5.87;;
19739;SDS011;10027;51.066;13.768;2022-12-05T07:14:15;10.67;;;6.50;;
19739;SDS011;10027;51.066;13.768;2022-12-05T07:17:03;9.70;;;6.37;;
19739;SDS011;10027;51.066;13.768;2022-12-05T07:19:30;10.03;;;5.93;;
19739;SDS011;10027;51.066;13.768;2022-12-05T07:21:57;9.50;;;6.20;;
19739;SDS011;10027;51.066;13.768;2022-12-05T07:24:24;9.80;;;5.90;;
19739;SDS011;10027;51.066;13.768;2022-12-05T07:26:51;9.77;;;5.97;;
19739;SDS011;10027;51.066;13.768;2022-12-05T07:29:18;9.63;;;5.67;;
19739;SDS011;10027;51.066;13.768;2022-12-05T07:31:45;11.30;;;6.50;;
19739;SDS011;10027;51.066;13.768;2022-12-05T07:34:13;9.77;;;5.80;;
19739;SDS011;10027;51.066;13.768;2022-12-05T07:36:40;10.10;;;6.50;;
19739;SDS011;10027;51.066;13.768;2022-12-05T07:39:07;11.90;;;6.33;;
19739;SDS011;10027;51.066;13.768;2022-12-05T07:41:35;8.93;;;5.83;;
19739;SDS011;10027;51.066;13.768;2022-12-05T07:44:02;10.30;;;6.20;;
19739;SDS011;10027;51.066;13.768;2022-12-05T07:46:29;10.30;;;6.33;;
19739;SDS011;10027;51.066;13.768;2022-12-05T07:48:56;9.47;;;5.80;;
19739;SDS011;10027;51.066;13.768;2022-12-05T07:51:23;9.00;;;6.10;;
19739;SDS011;10027;51.066;13.768;2022-12-05T07:53:50;10.43;;;5.73;;
19739;SDS011;10027;51.066;13.768;2022-12-05T07:56:18;9.67;;;6.30;;
19739;SDS011;10027;51.066;13.768;2022-12-05T07:58:46;10.20;;;6.20;;
19739;SDS011;10027;51.066;13.768;2022-12-05T08:01:17;9.90;;;6.03;;
19739;SDS011;10027;51.066;13.768;2022-12-05T08:03:45;9.30;;;5.70;;
19739;SDS011;10027;51.066;13.768;2022-12-05T08:06:14;8.87;;;5.50;;
19739;SDS011;10027;51.066;13.768;2022-12-05T08:08:41;9.73;;;6.43;;
19739;SDS011;10027;51.066;13.768;2022-12-05T08:11:10;9.37;;;6.13;;
19739;SDS011;10027;51.066;13.768;2022-12-05T08:13:37;9.13;;;6.03;;
19739;SDS011;10027;51.066;13.768;2022-12-05T08:16:05;10.13;;;5.53;;
19739;SDS011;10027;51.066;13.768;2022-12-05T08:18:33;10.80;;;6.37;;
19739;SDS011;10027;51.066;13.768;2022-12-05T08:21:00;8.93;;;5.90;;
19739;SDS011;10027;51.066;13.768;2022-12-05T08:23:28;9.57;;;6.00;;
19739;SDS011;10027;51.066;13.768;2022-12-05T08:26:00;10.17;;;6.47;;
19739;SDS011;10027;51.066;13.768;2022-12-05T08:28:27;13.63;;;6.33;;
19739;SDS011;10027;51.066;13.768;2022-12-05T08:30:54;11.80;;;6.90;;
19739;SDS011;10027;51.066;13.768;2022-12-05T08:33:21;10.77;;;6.37;;
19739;SDS011;10027;51.066;13.768;2022-12-05T08:35:48;10.10;;;6.33;;
19739;SDS011;10027;51.066;13.768;2022-12-05T08:38:16;32.90;;;14.63;;
19739;SDS011;10027;51.066;13.768;2022-12-05T08:40:43;31.43;;;14.47;;
19739;SDS011;10027;51.066;13.768;2022-12-05T08:43:12;36.57;;;15.90;;
19739;SDS011;10027;51.066;13.768;2022-12-05T08:45:39;33.77;;;14.60;;
19739;SDS011;10027;51.066;13.768;2022-12-05T08:48:06;35.47;;;15.67;;
19739;SDS011;10027;51.066;13.768;2022-12-05T08:50:34;36.77;;;16.30;;
19739;SDS011;10027;51.066;13.768;2022-12-05T08:53:04;38.97;;;17.17;;
19739;SDS011;10027;51.066;13.768;2022-12-05T08:55:33;40.63;;;16.77;;
19739;SDS011;10027;51.066;13.768;2022-12-05T08:58:00;43.87;;;16.80;;
19739;SDS011;10027;51.066;13.768;2022-12-05T09:00:27;40.70;;;18.13;;
19739;SDS011;10027;51.066;13.768;2022-12-05T09:02:54;39.13;;;17.73;;
19739;SDS011;10027;51.066;13.768;2022-12-05T09:05:21;45.90;;;18.03;;
19739;SDS011;10027;51.066;13.768;2022-12-05T09:07:54;42.40;;;17.60;;
19739;SDS011;10027;51.066;13.768;2022-12-05T09:10:21;43.23;;;18.93;;
19739;SDS011;10027;51.066;13.768;2022-12-05T09:12:48;37.07;;;16.77;;
19739;SDS011;10027;51.066;13.768;2022-12-05T09:15:16;39.30;;;16.70;;
19739;SDS011;10027;51.066;13.768;2022-12-05T09:17:43;33.27;;;16.07;;
19739;SDS011;10027;51.066;13.768;2022-12-05T09:20:10;35.90;;;15.50;;
19739;SDS011;10027;51.066;13.768;2022-12-05T09:22:39;34.57;;;16.27;;
19739;SDS011;10027;51.066;13.768;2022-12-05T09:25:06;43.87;;;16.63;;
19739;SDS011;10027;51.066;13.768;2022-12-05T09:27:34;35.37;;;15.23;;
19739;SDS011;10027;51.066;13.768;2022-12-05T09:30:01;37.03;;;16.70;;
19739;SDS011;10027;51.066;13.768;2022-12-05T09:32:30;32.30;;;15.40;;
19739;SDS011;10027;51.066;13.768;2022-12-05T09:34:57;37.30;;;15.67;;
19739;SDS011;10027;51.066;13.768;2022-12-05T09:37:24;36.77;;;14.90;;
19739;SDS011;10027;51.066;13.768;2022-12-05T09:40:09;33.47;;;15.50;;
19739;SDS011;10027;51.066;13.768;2022-12-05T09:43:03;40.93;;;15.70;;
19739;SDS011;10027;51.066;13.768;2022-12-05T09:45:29;36.80;;;15.37;;
19739;SDS011;10027;51.066;13.768;2022-12-05T09:48:00;32.97;;;14.20;;
19739;SDS011;10027;51.066;13.768;2022-12-05T09:50:33;20.77;;;11.67;;
19739;SDS011;10027;51.066;13.768;2022-12-05T09:53:04;24.30;;;11.83;;
19739;SDS011;10027;51.066;13.768;2022-12-05T09:58:02;28.07;;;11.10;;
19739;SDS011;10027;51.066;13.768;2022-12-05T10:00:31;18.30;;;11.57;;
19739;SDS011;10027;51.066;13.768;2022-12-05T10:03:10;19.73;;;10.87;;
19739;SDS011;10027;51.066;13.768;2022-12-05T10:05:41;19.83;;;10.73;;
19739;SDS011;10027;51.066;13.768;2022-12-05T10:11:00;20.53;;;10.80;;
19739;SDS011;10027;51.066;13.768;2022-12-05T10:15:59;26.53;;;11.80;;
19739;SDS011;10027;51.066;13.768;2022-12-05T10:18:37;23.07;;;11.27;;
19739;SDS011;10027;51.066;13.768;2022-12-05T10:26:25;23.83;;;12.10;;
19739;SDS011;10027;51.066;13.768;2022-12-05T10:31:24;21.70;;;10.60;;
19739;SDS011;10027;51.066;13.768;2022-12-05T10:33:56;21.83;;;10.70;;
19739;SDS011;10027;51.066;13.768;2022-12-05T10:36:24;24.97;;;10.90;;
19739;SDS011;10027;51.066;13.768;2022-12-05T10:38:51;16.87;;;10.07;;
19739;SDS011;10027;51.066;13.768;2022-12-05T10:41:18;16.73;;;9.67;;
19739;SDS011;10027;51.066;13.768;2022-12-05T10:43:46;16.73;;;9.50;;
19739;SDS011;10027;51.066;13.768;2022-12-05T10:46:14;14.00;;;8.00;;
19739;SDS011;10027;51.066;13.768;2022-12-05T10:48:42;15.20;;;7.97;;
19739;SDS011;10027;51.066;13.768;2022-12-05T10:51:12;14.27;;;9.00;;
19739;SDS011;10027;51.066;13.768;2022-12-05T10:53:40;10.67;;;6.47;;
19739;SDS011;10027;51.066;13.768;2022-12-05T10:58:56;9.87;;;6.17;;
19739;SDS011;10027;51.066;13.768;2022-12-05T11:01:26;9.20;;;5.80;;
19739;SDS011;10027;51.066;13.768;2022-12-05T11:03:57;10.80;;;6.33;;
19739;SDS011;10027;51.066;13.768;2022-12-05T11:06:28;9.20;;;5.60;;
19739;SDS011;10027;51.066;13.768;2022-12-05T11:08:57;10.70;;;5.60;;
19739;SDS011;10027;51.066;13.768;2022-12-05T11:11:32;9.13;;;5.53;;
19739;SDS011;10027;51.066;13.768;2022-12-05T11:14:00;11.63;;;6.70;;
19739;SDS011;10027;51.066;13.768;2022-12-05T11:19:17;10.93;;;6.17;;
19739;SDS011;10027;51.066;13.768;2022-12-05T11:21:49;8.93;;;5.63;;
19739;SDS011;10027;51.066;13.768;2022-12-05T11:26:47;11.07;;;6.33;;
19739;SDS011;10027;51.066;13.768;2022-12-05T11:31:55;10.87;;;5.90;;
19739;SDS011;10027;51.066;13.768;2022-12-05T11:34:23;9.63;;;5.70;;
19739;SDS011;10027;51.066;13.768;2022-12-05T11:36:53;9.87;;;5.80;;
19739;SDS011;10027;51.066;13.768;2022-12-05T11:39:21;11.70;;;6.40;;
19739;SDS011;10027;51.066;13.768;2022-12-05T11:45:13;13.17;;;6.77;;
19739;SDS011;10027;51.066;13.768;2022-12-05T11:51:44;10.13;;;6.53;;
19739;SDS011;10027;51.066;13.768;2022-12-05T11:53:42;13.60;;;6.23;;
19739;SDS011;10027;51.066;13.768;2022-12-05T11:56:24;12.27;;;6.40;;
19739;SDS011;10027;51.066;13.768;2022-12-05T12:09:19;10.57;;;6.17;;
19739;SDS011;10027;51.066;13.768;2022-12-05T12:33:04;14.37;;;5.90;;
19739;SDS011;10027;51.066;13.768;2022-12-05T12:37:54;12.30;;;6.40;;
19739;SDS011;10027;51.066;13.768;2022-12-05T12:40:34;10.53;;;6.60;;
19739;SDS011;10027;51.066;13.768;2022-12-05T12:45:47;10.87;;;6.80;;
19739;SDS011;10027;51.066;13.768;2022-12-05T12:50:43;9.63;;;6.10;;
19739;SDS011;10027;51.066;13.768;2022-12-05T13:06:06;8.13;;;5.17;;
19739;SDS011;10027;51.066;13.768;2022-12-05T13:08:37;10.73;;;5.60;;
19739;SDS011;10027;51.066;13.768;2022-12-05T13:11:07;9.57;;;5.73;;
19739;SDS011;10027;51.066;13.768;2022-12-05T13:13:36;9.47;;;6.27;;
19739;SDS011;10027;51.066;13.768;2022-12-05T13:16:04;10.23;;;5.70;;
19739;SDS011;10027;51.066;13.768;2022-12-05T13:18:33;9.87;;;5.77;;
19739;SDS011;10027;51.066;13.768;2022-12-05T13:21:01;10.73;;;6.20;;
19739;SDS011;10027;51.066;13.768;2022-12-05T13:23:33;10.23;;;6.10;;
19739;SDS011;10027;51.066;13.768;2022-12-05T13:26:00;12.43;;;6.33;;
19739;SDS011;10027;51.066;13.768;2022-12-05T13:28:34;9.20;;;5.60;;
19739;SDS011;10027;51.066;13.768;2022-12-05T13:31:07;9.47;;;5.50;;
19739;SDS011;10027;51.066;13.768;2022-12-05T13:33:35;8.97;;;5.63;;
19739;SDS011;10027;51.066;13.768;2022-12-05T13:38:58;9.50;;;5.63;;
19739;SDS011;10027;51.066;13.768;2022-12-05T13:41:45;10.17;;;5.93;;
19739;SDS011;10027;51.066;13.768;2022-12-05T13:44:34;10.03;;;5.50;;
19739;SDS011;10027;51.066;13.768;2022-12-05T13:47:02;7.63;;;5.43;;
19739;SDS011;10027;51.066;13.768;2022-12-05T13:49:37;8.63;;;5.40;;
19739;SDS011;10027;51.066;13.768;2022-12-05T13:52:27;8.40;;;5.57;;
19739;SDS011;10027;51.066;13.768;2022-12-05T13:55:19;10.83;;;6.07;;
19739;SDS011;10027;51.066;13.768;2022-12-05T13:57:46;8.47;;;5.40;;
19739;SDS011;10027;51.066;13.768;2022-12-05T14:07:43;9.07;;;6.37;;
19739;SDS011;10027;51.066;13.768;2022-12-05T14:10:11;10.70;;;5.97;;
19739;SDS011;10027;51.066;13.768;2022-12-05T14:12:54;8.40;;;5.10;;
19739;SDS011;10027;51.066;13.768;2022-12-05T14:17:56;7.83;;;4.43;;
19739;SDS011;10027;51.066;13.768;2022-12-05T14:23:01;7.93;;;5.00;;
19739;SDS011;10027;51.066;13.768;2022-12-05T14:25:35;8.50;;;4.20;;
19739;SDS011;10027;51.066;13.768;2022-12-05T14:30:47;6.83;;;4.67;;
19739;SDS011;10027;51.066;13.768;2022-12-05T14:33:16;7.60;;;4.90;;
19739;SDS011;10027;51.066;13.768;2022-12-05T14:35:47;7.20;;;5.00;;
19739;SDS011;10027;51.066;13.768;2022-12-05T14:38:29;6.10;;;4.30;;
19739;SDS011;10027;51.066;13.768;2022-12-05T14:41:10;7.93;;;5.27;;
19739;SDS011;10027;51.066;13.768;2022-12-05T14:43:37;7.43;;;4.67;;
19739;SDS011;10027;51.066;13.768;2022-12-05T14:46:06;6.17;;;4.70;;
19739;SDS011;10027;51.066;13.768;2022-12-05T14:48:41;7.27;;;4.97;;
19739;SDS011;10027;51.066;13.768;2022-12-05T14:54:02;8.97;;;5.30;;
19739;SDS011;10027;51.066;13.768;2022-12-05T14:56:30;8.67;;;5.90;;
19739;SDS011;10027;51.066;13.768;2022-12-05T14:58:59;8.30;;;5.40;;
19739;SDS011;10027;51.066;13.768;2022-12-05T15:06:53;8.87;;;5.57;;
19739;SDS011;10027;51.066;13.768;2022-12-05T15:15:14;8.73;;;5.53;;
19739;SDS011;10027;51.066;13.768;2022-12-05T15:17:47;8.33;;;5.70;;
19739;SDS011;10027;51.066;13.768;2022-12-05T15:20:16;9.00;;;5.90;;
19739;SDS011;10027;51.066;13.768;2022-12-05T15:22:45;10.57;;;6.00;;
19739;SDS011;10027;51.066;13.768;2022-12-05T15:25:12;10.70;;;5.77;;
19739;SDS011;10027;51.066;13.768;2022-12-05T15:27:40;8.33;;;5.57;;
19739;SDS011;10027;51.066;13.768;2022-12-05T15:30:14;10.30;;;6.40;;
19739;SDS011;10027;51.066;13.768;2022-12-05T15:32:42;9.93;;;6.43;;
19739;SDS011;10027;51.066;13.768;2022-12-05T15:35:09;10.63;;;6.60;;
19739;SDS011;10027;51.066;13.768;2022-12-05T15:38:02;10.60;;;6.43;;
19739;SDS011;10027;51.066;13.768;2022-12-05T15:40:33;9.60;;;6.73;;
19739;SDS011;10027;51.066;13.768;2022-12-05T15:43:25;11.83;;;7.57;;
19739;SDS011;10027;51.066;13.768;2022-12-05T15:46:05;14.73;;;8.10;;
19739;SDS011;10027;51.066;13.768;2022-12-05T15:48:33;12.50;;;7.53;;
19739;SDS011;10027;51.066;13.768;2022-12-05T15:51:00;10.77;;;7.47;;
19739;SDS011;10027;51.066;13.768;2022-12-05T15:53:36;12.73;;;8.03;;
19739;SDS011;10027;51.066;13.768;2022-12-05T15:56:08;12.00;;;7.40;;
19739;SDS011;10027;51.066;13.768;2022-12-05T15:58:50;11.30;;;6.73;;
19739;SDS011;10027;51.066;13.768;2022-12-05T16:01:21;9.57;;;6.70;;
19739;SDS011;10027;51.066;13.768;2022-12-05T16:04:02;12.00;;;6.87;;
19739;SDS011;10027;51.066;13.768;2022-12-05T16:09:05;12.87;;;6.93;;
19739;SDS011;10027;51.066;13.768;2022-12-05T16:11:37;10.47;;;6.90;;
19739;SDS011;10027;51.066;13.768;2022-12-05T16:14:04;11.87;;;7.07;;
19739;SDS011;10027;51.066;13.768;2022-12-05T16:16:33;10.47;;;6.83;;
19739;SDS011;10027;51.066;13.768;2022-12-05T16:19:03;12.30;;;7.13;;
19739;SDS011;10027;51.066;13.768;2022-12-05T16:21:31;10.07;;;6.73;;
19739;SDS011;10027;51.066;13.768;2022-12-05T16:24:14;14.27;;;6.87;;
19739;SDS011;10027;51.066;13.768;2022-12-05T16:26:43;12.20;;;7.83;;
19739;SDS011;10027;51.066;13.768;2022-12-05T16:29:24;12.70;;;7.37;;
19739;SDS011;10027;51.066;13.768;2022-12-05T16:31:56;11.80;;;7.10;;
19739;SDS011;10027;51.066;13.768;2022-12-05T16:34:24;13.70;;;7.70;;
19739;SDS011;10027;51.066;13.768;2022-12-05T16:36:53;13.57;;;7.67;;
19739;SDS011;10027;51.066;13.768;2022-12-05T16:39:21;14.73;;;8.37;;
19739;SDS011;10027;51.066;13.768;2022-12-05T16:41:48;13.10;;;8.00;;
19739;SDS011;10027;51.066;13.768;2022-12-05T16:46:53;12.17;;;7.63;;
19739;SDS011;10027;51.066;13.768;2022-12-05T16:52:01;14.63;;;8.87;;
19739;SDS011;10027;51.066;13.768;2022-12-05T16:54:28;17.37;;;9.37;;
19739;SDS011;10027;51.066;13.768;2022-12-05T16:56:55;13.77;;;8.53;;
19739;SDS011;10027;51.066;13.768;2022-12-05T16:59:26;14.93;;;8.70;;
19739;SDS011;10027;51.066;13.768;2022-12-05T17:01:56;13.50;;;8.83;;
19739;SDS011;10027;51.066;13.768;2022-12-05T17:04:23;16.73;;;8.90;;
19739;SDS011;10027;51.066;13.768;2022-12-05T17:06:50;19.77;;;10.00;;
19739;SDS011;10027;51.066;13.768;2022-12-05T17:09:17;16.90;;;9.90;;
19739;SDS011;10027;51.066;13.768;2022-12-05T17:11:45;17.30;;;10.50;;
19739;SDS011;10027;51.066;13.768;2022-12-05T17:14:13;15.60;;;9.40;;
19739;SDS011;10027;51.066;13.768;2022-12-05T17:16:41;18.83;;;10.40;;
19739;SDS011;10027;51.066;13.768;2022-12-05T17:19:08;18.77;;;9.90;;
19739;SDS011;10027;51.066;13.768;2022-12-05T17:21:36;16.23;;;10.00;;
19739;SDS011;10027;51.066;13.768;2022-12-05T17:24:03;14.73;;;8.83;;
19739;SDS011;10027;51.066;13.768;2022-12-05T17:26:31;15.23;;;8.30;;
19739;SDS011;10027;51.066;13.768;2022-12-05T17:28:58;11.70;;;7.70;;